createdAt,value
2022-08-03T00:02:18.669Z,56.91
2022-08-03T00:04:46.967Z,57.01
2022-08-03T00:07:19.536Z,57.16
2022-08-03T00:09:47.318Z,57.13
2022-08-03T00:12:15.223Z,57.06
2022-08-03T00:14:46.033Z,57.07
2022-08-03T00:17:13.976Z,57.04
2022-08-03T00:19:44.299Z,56.88
2022-08-03T00:22:15.944Z,56.82
2022-08-03T00:24:43.718Z,56.86
2022-08-03T00:27:15.812Z,57.01
2022-08-03T00:30:00.024Z,56.83
2022-08-03T00:32:28.118Z,56.92
2022-08-03T00:34:57.793Z,56.78
2022-08-03T00:37:40.748Z,57.06
2022-08-03T00:40:15.103Z,57.52
2022-08-03T00:42:48.991Z,57.91
2022-08-03T00:45:17.879Z,58.28
2022-08-03T00:47:45.973Z,58.51
2022-08-03T00:50:15.863Z,59.02
2022-08-03T00:52:44.410Z,59.15
2022-08-03T00:55:14.187Z,59.36
2022-08-03T00:57:43.467Z,59.72
2022-08-03T01:00:17.506Z,59.73
2022-08-03T01:02:45.871Z,59.58
2022-08-03T01:05:15.425Z,59.45
2022-08-03T01:08:02.013Z,59.21
2022-08-03T01:10:54.282Z,59.07
2022-08-03T01:14:03.978Z,58.84
2022-08-03T01:16:43.641Z,58.76
2022-08-03T01:19:46.882Z,58.92
2022-08-03T01:22:30.947Z,59.16
2022-08-03T01:25:28.724Z,59.48
2022-08-03T01:28:02.131Z,59.48
2022-08-03T01:30:37.903Z,59.35
2022-08-03T01:33:13.545Z,58.86
2022-08-03T01:35:51.250Z,58.92
2022-08-03T01:38:46.315Z,58.88
2022-08-03T01:41:25.129Z,58.79
2022-08-03T01:44:29.001Z,58.76
2022-08-03T01:46:49.232Z,58.70
2022-08-03T01:49:18.547Z,58.66
2022-08-03T01:52:02.804Z,58.70
2022-08-03T01:54:48.778Z,58.63
2022-08-03T01:57:19.117Z,58.67
2022-08-03T01:59:50.762Z,58.84
2022-08-03T02:02:33.572Z,58.87
2022-08-03T02:05:10.665Z,58.99
2022-08-03T02:07:44.263Z,59.11
2022-08-03T02:10:16.600Z,59.17
2022-08-03T02:13:06.123Z,59.30
2022-08-03T02:15:36.984Z,59.32
2022-08-03T02:18:18.742Z,59.57
2022-08-03T02:20:47.993Z,59.60
2022-08-03T02:23:19.421Z,59.63
2022-08-03T02:25:53.307Z,59.74
2022-08-03T02:28:26.841Z,59.71
2022-08-03T02:30:57.247Z,59.82
2022-08-03T02:33:36.806Z,59.76
2022-08-03T02:36:06.685Z,59.75
2022-08-03T02:38:41.177Z,59.87
2022-08-03T02:41:16.930Z,59.89
2022-08-03T02:44:06.960Z,60.00
2022-08-03T02:46:43.111Z,60.28
2022-08-03T02:49:42.708Z,60.15
2022-08-03T02:52:12.624Z,60.56
2022-08-03T02:54:46.335Z,60.68
2022-08-03T02:57:17.075Z,61.16
2022-08-03T02:59:46.015Z,61.23
2022-08-03T03:02:17.071Z,61.31
2022-08-03T03:05:50.724Z,61.29
2022-08-03T03:07:51.256Z,61.53
2022-08-03T03:10:23.055Z,61.41
2022-08-03T03:12:53.624Z,61.67
2022-08-03T03:15:21.696Z,61.82
2022-08-03T03:17:51.882Z,61.90
2022-08-03T03:20:30.221Z,61.83
2022-08-03T03:23:01.291Z,61.57
2022-08-03T03:25:33.646Z,61.63
2022-08-03T03:28:03.217Z,61.61
2022-08-03T03:30:35.539Z,61.75
2022-08-03T03:33:03.579Z,61.75
2022-08-03T03:35:31.983Z,61.94
2022-08-03T03:38:07.219Z,62.00
2022-08-03T03:40:39.229Z,62.12
2022-08-03T03:43:14.185Z,62.32
2022-08-03T03:45:43.285Z,62.59
2022-08-03T03:48:13.283Z,62.81
2022-08-03T03:50:41.463Z,62.82
2022-08-03T03:53:13.842Z,62.69
2022-08-03T03:56:01.665Z,62.83
2022-08-03T03:58:30.877Z,63.02
2022-08-03T04:00:58.588Z,63.06
2022-08-03T04:03:26.292Z,63.17
2022-08-03T04:06:14.026Z,63.49
2022-08-03T04:09:01.114Z,63.49
2022-08-03T04:11:41.211Z,63.18
2022-08-03T04:14:17.938Z,62.97
2022-08-03T04:16:55.122Z,62.94
2022-08-03T04:19:32.464Z,63.03
2022-08-03T04:22:07.169Z,63.08
2022-08-03T04:24:43.302Z,63.13
2022-08-03T04:27:21.068Z,63.36
2022-08-03T04:29:51.965Z,63.34
2022-08-03T04:32:23.755Z,63.30
2022-08-03T04:34:52.318Z,63.35
2022-08-03T04:37:26.055Z,63.06
2022-08-03T04:39:57.900Z,63.12
2022-08-03T04:42:27.685Z,63.57
2022-08-03T04:45:01.116Z,63.37
2022-08-03T04:47:32.279Z,63.04
2022-08-03T04:50:02.249Z,62.98
2022-08-03T04:52:30.566Z,62.68
2022-08-03T04:54:58.216Z,62.53
2022-08-03T04:57:25.935Z,62.51
2022-08-03T05:00:02.467Z,62.41
2022-08-03T05:02:32.036Z,62.44
2022-08-03T05:04:59.672Z,62.05
2022-08-03T05:07:34.080Z,61.94
2022-08-03T05:10:16.100Z,61.49
2022-08-03T05:12:45.990Z,61.17
2022-08-03T05:15:16.220Z,60.92
2022-08-03T05:17:44.020Z,60.65
2022-08-03T05:20:12.542Z,60.51
2022-08-03T05:22:42.600Z,60.24
2022-08-03T05:25:17.300Z,60.25
2022-08-03T05:27:48.491Z,60.28
2022-08-03T05:30:32.600Z,60.02
2022-08-03T05:33:03.907Z,59.74
2022-08-03T05:36:03.609Z,59.24
2022-08-03T05:38:23.934Z,57.70
2022-08-03T05:41:22.096Z,53.82
2022-08-03T05:43:45.259Z,50.35
2022-08-03T05:46:16.622Z,47.97
2022-08-03T05:48:44.959Z,46.66
2022-08-03T05:51:16.730Z,44.78
2022-08-03T05:53:45.464Z,43.47
2022-08-03T05:56:17.111Z,43.53
2022-08-03T05:58:46.959Z,44.02
2022-08-03T06:01:16.193Z,42.57
2022-08-03T06:03:44.223Z,41.44
2022-08-03T06:06:15.289Z,40.55
2022-08-03T06:08:44.860Z,39.63
2022-08-03T06:11:16.834Z,39.38
2022-08-03T06:13:45.281Z,38.66
2022-08-03T06:16:16.202Z,37.73
2022-08-03T06:18:44.631Z,37.36
2022-08-03T06:21:18.768Z,36.96
2022-08-03T06:23:53.034Z,36.69
2022-08-03T06:26:27.438Z,36.35
2022-08-03T06:28:57.096Z,36.09
2022-08-03T06:31:33.054Z,35.81
2022-08-03T06:34:33.228Z,35.55
2022-08-03T06:36:52.340Z,35.57
2022-08-03T06:39:23.586Z,36.81
2022-08-03T06:41:52.227Z,37.24
2022-08-03T06:44:20.167Z,35.92
2022-08-03T06:46:47.986Z,34.30
2022-08-03T06:49:15.776Z,33.29
2022-08-03T06:52:03.529Z,32.34
2022-08-03T06:54:33.191Z,32.16
2022-08-03T06:57:01.257Z,31.81
2022-08-03T07:00:09.252Z,31.04
2022-08-03T07:02:23.787Z,30.20
2022-08-03T07:04:54.343Z,30.00
2022-08-03T07:07:21.967Z,30.71
2022-08-03T07:09:55.706Z,31.81
2022-08-03T07:12:27.640Z,32.64
2022-08-03T07:15:00.813Z,33.21
2022-08-03T07:17:32.734Z,33.35
2022-08-03T07:20:02.203Z,33.16
2022-08-03T07:22:30.292Z,32.56
2022-08-03T07:24:58.474Z,32.36
2022-08-03T07:30:14.630Z,34.88
2022-08-03T07:32:50.286Z,33.99
2022-08-03T07:35:24.915Z,32.36
2022-08-03T07:37:54.335Z,31.70
2022-08-03T07:40:23.176Z,31.58
2022-08-03T07:42:54.835Z,31.50
2022-08-03T07:45:23.729Z,31.69
2022-08-03T07:47:53.697Z,30.82
2022-08-03T07:50:27.390Z,31.34
2022-08-03T07:52:56.099Z,30.74
2022-08-03T07:55:27.970Z,30.27
2022-08-03T07:58:13.921Z,30.44
2022-08-03T08:00:42.531Z,29.88
2022-08-03T08:03:20.193Z,30.07
2022-08-03T08:05:48.196Z,30.29
2022-08-03T08:08:21.066Z,29.93
2022-08-03T08:10:57.675Z,30.51
2022-08-03T08:13:26.483Z,30.28
2022-08-03T08:15:55.983Z,29.74
2022-08-03T08:18:25.097Z,29.47
2022-08-03T08:20:52.956Z,27.66
2022-08-03T08:23:36.231Z,27.71
2022-08-03T08:26:17.546Z,27.85
2022-08-03T08:28:45.480Z,28.86
2022-08-03T08:31:18.797Z,29.10
2022-08-03T08:34:03.730Z,28.39
2022-08-03T08:36:39.250Z,28.24
2022-08-03T08:39:09.213Z,27.79
2022-08-03T08:41:38.861Z,28.28
2022-08-03T08:44:15.266Z,27.36
2022-08-03T08:46:45.642Z,27.70
2022-08-03T08:49:23.123Z,27.51
2022-08-03T08:52:01.007Z,26.94
2022-08-03T08:54:34.834Z,26.89
2022-08-03T08:57:12.491Z,26.81
2022-08-03T08:59:59.516Z,27.03
2022-08-03T09:02:35.147Z,26.66
2022-08-03T09:05:07.305Z,26.66
2022-08-03T09:07:35.929Z,26.57
2022-08-03T09:10:12.267Z,26.63
2022-08-03T09:12:55.240Z,26.77
2022-08-03T09:18:14.090Z,26.14
2022-08-03T09:20:47.803Z,26.47
2022-08-03T09:23:51.835Z,25.82
2022-08-03T09:26:07.091Z,26.03
2022-08-03T09:28:56.523Z,25.95
2022-08-03T09:31:38.748Z,26.08
2022-08-03T09:34:09.489Z,25.89
2022-08-03T09:36:47.292Z,25.74
2022-08-03T09:39:37.534Z,25.80
2022-08-03T09:42:23.741Z,26.02
2022-08-03T09:44:53.288Z,26.02
2022-08-03T09:47:44.832Z,25.97
2022-08-03T09:50:15.829Z,25.83
2022-08-03T09:52:49.694Z,25.63
2022-08-03T09:56:33.495Z,25.67
2022-08-03T09:58:29.713Z,25.12
2022-08-03T10:01:06.241Z,25.92
2022-08-03T10:04:03.138Z,25.70
2022-08-03T10:06:29.159Z,25.34
2022-08-03T10:09:07.827Z,25.37
2022-08-03T10:11:41.196Z,26.10
2022-08-03T10:14:19.575Z,25.57
2022-08-03T10:16:49.665Z,25.10
2022-08-03T10:19:18.451Z,26.04
2022-08-03T10:21:56.863Z,26.29
2022-08-03T10:24:30.538Z,26.43
2022-08-03T10:27:04.623Z,25.90
2022-08-03T10:29:39.227Z,25.93
2022-08-03T10:32:28.608Z,26.13
2022-08-03T10:35:21.656Z,26.34
2022-08-03T10:37:58.799Z,26.49
2022-08-03T10:40:48.163Z,26.07
2022-08-03T10:43:23.163Z,25.40
2022-08-03T10:45:52.424Z,25.36
2022-08-03T10:48:20.976Z,25.04
2022-08-03T10:50:50.834Z,25.71
2022-08-03T10:53:54.817Z,25.78
2022-08-03T10:56:54.558Z,25.68
2022-08-03T10:59:47.268Z,26.06
2022-08-03T11:02:17.361Z,26.01
2022-08-03T11:04:45.398Z,25.41
2022-08-03T11:07:17.490Z,25.72
2022-08-03T11:09:48.786Z,24.95
2022-08-03T11:12:28.415Z,25.85
2022-08-03T11:15:09.494Z,26.26
2022-08-03T11:17:46.902Z,26.75
2022-08-03T11:20:46.886Z,26.12
2022-08-03T11:23:18.340Z,25.70
2022-08-03T11:26:18.255Z,25.04
2022-08-03T11:28:48.272Z,25.55
2022-08-03T11:31:49.755Z,25.54
2022-08-03T11:34:17.305Z,25.69
2022-08-03T11:37:25.211Z,25.40
2022-08-03T11:39:57.087Z,25.04
2022-08-03T11:42:25.581Z,25.87
2022-08-03T11:44:58.991Z,26.25
2022-08-03T11:47:28.811Z,26.39
2022-08-03T11:50:01.888Z,26.73
2022-08-03T11:52:37.549Z,26.82
2022-08-03T11:55:13.203Z,26.96
2022-08-03T11:59:11.018Z,25.54
2022-08-03T12:00:32.546Z,25.51
2022-08-03T12:03:01.065Z,25.88
2022-08-03T12:05:39.717Z,25.96
2022-08-03T12:08:13.696Z,26.42
2022-08-03T12:10:50.264Z,27.17
2022-08-03T12:14:45.121Z,27.46
2022-08-03T12:16:09.428Z,27.18
2022-08-03T12:18:37.529Z,27.68
2022-08-03T12:21:14.634Z,27.94
2022-08-03T12:23:42.774Z,27.89
2022-08-03T12:26:12.613Z,28.66
2022-08-03T12:28:49.929Z,28.28
2022-08-03T12:31:20.432Z,28.61
2022-08-03T12:34:08.142Z,28.20
2022-08-03T12:36:38.209Z,28.73
2022-08-03T12:39:09.104Z,28.62
2022-08-03T12:41:39.905Z,28.54
2022-08-03T12:44:14.965Z,28.65
2022-08-03T12:46:48.118Z,28.15
2022-08-03T12:49:19.165Z,28.31
2022-08-03T12:51:46.966Z,28.77
2022-08-03T12:54:27.303Z,29.62
2022-08-03T12:57:02.859Z,29.78
2022-08-03T12:59:35.376Z,30.39
2022-08-03T13:02:20.451Z,31.07
2022-08-03T13:04:54.656Z,30.67
2022-08-03T13:07:23.458Z,29.23
2022-08-03T13:09:56.265Z,29.23
2022-08-03T13:12:26.526Z,28.99
2022-08-03T13:14:57.924Z,28.79
2022-08-03T13:17:27.481Z,28.70
2022-08-03T13:19:55.914Z,28.48
2022-08-03T13:22:27.239Z,27.71
2022-08-03T13:24:57.818Z,28.50
2022-08-03T13:28:03.589Z,29.09
2022-08-03T13:30:28.179Z,29.66
2022-08-03T13:33:00.184Z,29.77
2022-08-03T13:35:27.768Z,29.08
2022-08-03T13:37:55.409Z,30.00
2022-08-03T13:40:30.172Z,29.78
2022-08-03T13:42:58.281Z,28.73
2022-08-03T13:45:27.527Z,29.44
2022-08-03T13:47:55.173Z,29.86
2022-08-03T13:50:22.803Z,29.76
2022-08-03T13:52:50.574Z,29.17
2022-08-03T13:55:18.182Z,28.90
2022-08-03T13:58:04.604Z,28.41
2022-08-03T14:00:33.800Z,28.47
2022-08-03T14:03:12.852Z,28.47
2022-08-03T14:05:44.950Z,28.56
2022-08-03T14:08:15.538Z,28.74
2022-08-03T14:10:45.487Z,29.13
2022-08-03T14:13:17.732Z,29.64
2022-08-03T14:15:51.137Z,29.04
2022-08-03T14:18:27.696Z,28.58
2022-08-03T14:21:03.438Z,28.88
2022-08-03T14:23:34.411Z,28.55
2022-08-03T14:26:02.380Z,29.21
2022-08-03T14:28:30.008Z,28.71
2022-08-03T14:30:57.749Z,28.71
2022-08-03T14:33:25.870Z,28.76
2022-08-03T14:35:54.318Z,28.60
2022-08-03T14:38:22.465Z,27.98
2022-08-03T14:40:51.434Z,28.44
2022-08-03T14:43:21.220Z,28.67
2022-08-03T14:45:52.604Z,28.73
2022-08-03T14:50:30.564Z,28.46
2022-08-03T14:51:19.397Z,29.11
2022-08-03T14:53:47.133Z,28.34
2022-08-03T14:56:14.939Z,28.64
2022-08-03T14:58:43.158Z,28.97
2022-08-03T15:02:06.399Z,29.35
2022-08-03T15:04:00.975Z,29.24
2022-08-03T15:06:28.622Z,29.04
2022-08-03T15:09:21.287Z,28.48
2022-08-03T15:11:44.381Z,28.50
2022-08-03T15:14:16.885Z,29.23
2022-08-03T15:16:48.183Z,29.69
2022-08-03T15:20:01.173Z,29.83
2022-08-03T15:22:03.395Z,30.01
2022-08-03T15:24:30.928Z,30.42
2022-08-03T15:26:59.284Z,29.88
2022-08-03T15:30:05.854Z,29.36
2022-08-03T15:32:15.650Z,29.53
2022-08-03T15:34:50.765Z,29.77
2022-08-03T15:37:19.732Z,29.85
2022-08-03T15:39:59.806Z,29.72
2022-08-03T15:42:30.116Z,30.11
2022-08-03T15:44:58.274Z,29.61
2022-08-03T15:47:26.546Z,29.82
2022-08-03T15:49:54.256Z,29.75
2022-08-03T15:52:22.134Z,30.78
2022-08-03T15:54:49.734Z,30.46
2022-08-03T15:57:17.613Z,30.60
2022-08-03T15:59:45.462Z,31.26
2022-08-03T16:02:16.765Z,31.56
2022-08-03T16:04:44.446Z,31.52
2022-08-03T16:07:16.077Z,31.07
2022-08-03T16:09:44.464Z,31.00
2022-08-03T16:12:16.690Z,30.78
2022-08-03T16:14:52.773Z,30.71
2022-08-03T16:17:22.797Z,29.99
2022-08-03T16:19:54.849Z,30.46
2022-08-03T16:22:26.115Z,30.65
2022-08-03T16:24:55.416Z,30.88
2022-08-03T16:27:56.560Z,31.02
2022-08-03T16:30:16.643Z,30.56
2022-08-03T16:32:45.933Z,31.32
2022-08-03T16:35:19.191Z,31.27
2022-08-03T16:37:54.576Z,30.97
2022-08-03T16:40:25.525Z,31.09
2022-08-03T16:42:56.617Z,31.24
2022-08-03T16:45:24.312Z,31.05
2022-08-03T16:48:01.560Z,30.89
2022-08-03T16:50:34.963Z,31.83
2022-08-03T16:53:09.297Z,31.98
2022-08-03T16:55:48.522Z,31.17
2022-08-03T16:58:34.303Z,31.33
2022-08-03T17:01:21.457Z,31.38
2022-08-03T17:04:01.369Z,31.68
2022-08-03T17:06:34.321Z,31.96
2022-08-03T17:09:23.478Z,31.65
2022-08-03T17:11:52.441Z,31.47
2022-08-03T17:14:28.345Z,31.91
2022-08-03T17:17:01.649Z,31.66
2022-08-03T17:19:32.478Z,31.60
2022-08-03T17:22:19.800Z,31.98
2022-08-03T17:24:54.389Z,31.67
2022-08-03T17:28:48.897Z,31.99
2022-08-03T17:30:18.925Z,31.77
2022-08-03T17:32:56.731Z,32.39
2022-08-03T17:35:34.592Z,32.38
2022-08-03T17:38:11.932Z,32.44
2022-08-03T17:40:48.084Z,32.11
2022-08-03T17:44:13.018Z,32.78
2022-08-03T17:46:07.327Z,32.58
2022-08-03T17:48:41.542Z,32.40
2022-08-03T17:51:30.324Z,33.46
2022-08-03T17:54:05.030Z,34.64
2022-08-03T17:57:22.128Z,34.08
2022-08-03T18:00:29.431Z,33.84
2022-08-03T18:06:30.586Z,33.88
2022-08-03T18:09:04.928Z,33.79
2022-08-03T18:11:55.824Z,33.52
2022-08-03T18:15:00.667Z,33.69
2022-08-03T18:17:55.821Z,33.81
2022-08-03T18:20:32.712Z,33.92
2022-08-03T18:23:07.065Z,33.94
2022-08-03T18:25:45.716Z,34.19
2022-08-03T18:28:18.846Z,34.33
2022-08-03T18:30:53.744Z,34.58
2022-08-03T18:34:17.260Z,34.78
2022-08-03T18:36:29.422Z,35.24
2022-08-03T18:39:02.335Z,35.40
2022-08-03T18:41:34.351Z,35.37
2022-08-03T18:44:07.651Z,35.82
2022-08-03T18:47:05.534Z,35.95
2022-08-03T18:49:51.228Z,36.08
2022-08-03T18:55:33.650Z,36.59
2022-08-03T18:58:39.773Z,37.48
2022-08-03T19:02:00.449Z,37.31
2022-08-03T19:04:18.820Z,37.80
2022-08-03T19:07:01.090Z,37.64
2022-08-03T19:09:48.103Z,37.76
2022-08-03T19:12:30.540Z,38.08
2022-08-03T19:15:10.599Z,38.10
2022-08-03T19:17:53.870Z,38.07
2022-08-03T19:20:25.110Z,38.46
2022-08-03T19:22:55.826Z,38.63
2022-08-03T19:25:34.732Z,39.24
2022-08-03T19:28:19.110Z,39.60
2022-08-03T19:30:53.464Z,40.29
2022-08-03T19:33:22.724Z,39.79
2022-08-03T19:35:55.402Z,39.57
2022-08-03T19:38:27.485Z,39.79
2022-08-03T19:41:03.653Z,40.29
2022-08-03T19:43:49.280Z,40.61
2022-08-03T19:46:31.079Z,40.78
2022-08-03T19:49:26.168Z,41.38
2022-08-03T19:52:17.039Z,41.56
2022-08-03T19:54:56.926Z,41.25
2022-08-03T19:57:27.351Z,41.74
2022-08-03T19:59:56.953Z,42.10
2022-08-03T20:02:27.807Z,41.87
2022-08-03T20:04:59.881Z,42.23
2022-08-03T20:07:32.399Z,42.90
2022-08-03T20:10:02.565Z,42.57
2022-08-03T20:12:39.243Z,42.29
2022-08-03T20:15:09.219Z,42.90
2022-08-03T20:17:56.729Z,42.92
2022-08-03T20:20:31.138Z,43.27
2022-08-03T20:23:01.137Z,43.39
2022-08-03T20:25:38.055Z,42.83
2022-08-03T20:28:26.613Z,43.16
2022-08-03T20:30:55.307Z,43.60
2022-08-03T20:33:34.573Z,44.21
2022-08-03T20:36:15.802Z,44.24
2022-08-03T20:38:47.005Z,44.27
2022-08-03T20:41:17.146Z,44.30
2022-08-03T20:43:46.110Z,44.11
2022-08-03T20:46:31.889Z,44.28
2022-08-03T20:49:06.929Z,44.80
2022-08-03T20:51:50.068Z,44.74
2022-08-03T20:54:30.627Z,44.60
2022-08-03T20:57:04.137Z,45.47
2022-08-03T20:59:51.217Z,45.05
2022-08-03T21:02:30.541Z,44.97
2022-08-03T21:05:08.479Z,44.27
2022-08-03T21:08:05.078Z,44.95
2022-08-03T21:10:42.569Z,44.92
2022-08-03T21:12:56.491Z,33.74
2022-08-03T21:13:09.434Z,36.22
2022-08-03T21:13:23.606Z,45.03
2022-08-03T21:16:02.345Z,45.43
2022-08-03T21:18:49.852Z,45.50
2022-08-03T21:21:23.052Z,45.65
2022-08-03T21:23:56.515Z,44.94
2022-08-03T21:26:27.401Z,44.94
2022-08-03T21:28:56.917Z,45.57
2022-08-03T21:31:28.466Z,44.99
2022-08-03T21:33:59.580Z,44.93
2022-08-03T21:36:30.529Z,45.73
2022-08-03T21:38:59.367Z,46.17
2022-08-03T21:41:32.884Z,46.62
2022-08-03T21:44:01.754Z,46.87
2022-08-03T21:46:35.775Z,46.62
2022-08-03T21:50:02.669Z,47.23
2022-08-03T21:51:59.757Z,47.69
2022-08-03T21:54:35.791Z,46.68
2022-08-03T21:57:09.158Z,46.32
2022-08-03T21:59:42.640Z,46.76
2022-08-03T22:02:22.665Z,46.45
2022-08-03T22:04:57.068Z,46.91
2022-08-03T22:07:27.770Z,47.31
2022-08-03T22:09:57.353Z,47.56
2022-08-03T22:12:28.460Z,48.21
2022-08-03T22:15:00.943Z,48.61
2022-08-03T22:17:55.682Z,48.63
2022-08-03T22:20:21.446Z,48.69
2022-08-03T22:22:55.896Z,49.51
2022-08-03T22:25:30.758Z,49.40
2022-08-03T22:28:01.375Z,50.21
2022-08-03T22:30:29.627Z,51.04
2022-08-03T22:32:58.042Z,50.45
2022-08-03T22:35:28.012Z,50.85
2022-08-03T22:37:58.896Z,50.45
2022-08-03T22:40:29.100Z,50.43
2022-08-03T22:42:58.179Z,49.21
2022-08-03T22:46:07.648Z,48.56
2022-08-03T22:48:17.915Z,48.06
2022-08-03T22:50:47.725Z,47.84
2022-08-03T22:53:21.276Z,47.99
2022-08-03T22:55:50.498Z,47.56
2022-08-03T22:58:22.914Z,47.43
2022-08-03T23:00:58.570Z,47.85
2022-08-03T23:03:59.738Z,48.01
2022-08-03T23:06:21.846Z,48.83
2022-08-03T23:08:51.614Z,48.36
2022-08-03T23:11:21.923Z,49.03
2022-08-03T23:13:54.816Z,49.33
2022-08-03T23:16:29.682Z,49.61
2022-08-03T23:18:59.704Z,49.80
2022-08-03T23:21:53.690Z,50.79
2022-08-03T23:24:25.566Z,52.05
2022-08-03T23:26:58.914Z,52.36
2022-08-03T23:29:28.883Z,52.72
2022-08-03T23:31:58.572Z,52.50
2022-08-03T23:34:47.168Z,51.86
2022-08-03T23:37:16.650Z,50.76
2022-08-03T23:39:49.766Z,51.03
2022-08-03T23:42:19.782Z,51.37
2022-08-03T23:44:50.879Z,50.81
2022-08-03T23:47:18.594Z,51.24
2022-08-03T23:49:46.186Z,51.72
2022-08-03T23:52:42.991Z,52.27
2022-08-03T23:55:16.724Z,54.65
2022-08-03T23:58:18.481Z,56.17
